Bryan, TX (77801)

7:21 PM CST on February 06, 2016 (GMT -0600)
Woodland Hights | | Change Station
CLOSE
Current Station
Personal Weather Station
Location: Bryan, TX
Elevation: 335 ft
Nearby Weather Stations

Elev 335 ft 30.65 °N, 96.36 °W | Updated 6 minutes ago

Clear
Clear
46.5 °F
Feels Like 46 °F
N
3.0
Wind Variable Wind from NNW
Gusts 8.0 mph

Today
High -- | Low -- °F
--% Chance of Precip.
Yesterday
High -- | Low -- °F
Precip. -- in
Pressure 30.37 in
Visibility 10.0 miles
Clouds Clear
Windchill 46 °F
Dew Point 39 °F
Humidity 74%
Rainfall 0.20 in
Snow Depth Not available.
7:13 AM 6:05 PM
Waning Crescent, 3% visible
METAR KCLL 070053Z 33005KT 10SM CLR 07/02 A3037 RMK AO2 SLP284 T00720022
Pressure 30.37 in
Visibility 10.0 miles
Clouds Clear
Windchill 46 °F
Dew Point 39 °F
Humidity 74%
Rainfall 0.20 in
Snow Depth Not available.
7:13 AM 6:05 PM
Waning Crescent, 3% visible
METAR KCLL 070053Z 33005KT 10SM CLR 07/02 A3037 RMK AO2 SLP284 T00720022

10-Day Weather Forecast

Almanac

Astronomy

Feb. 06, 2016 Rise Set
Actual Time
Civil Twilight
Nautical Twilight
Astronomical Twilight
Moon
Length of Visible Light
Length of Day
Tomorrow will be .
, % of the Moon is Illuminated

Today's Extremes

State Highs State Lows

Community

WunderPhotos

Upload Photos

1,891,118 photos uploaded!

WunderBlog® & News

Nearby

Air Quality

  Air Quality AQ Index Pollutant
Not available.

Snow Depth

Station Depth Elevation

Earthquake Activity

City Distance Mag. Time & Date
Minimum magnitude displayed is 2.5.

Coastal Water Temperatures

Place Temperature

Stations

Nearby Weather Stations

Station Location Temp. Windchill Dew Point Humidity Wind Precip. Elev Updated Type
                   

Watches & Warnings

There are currently no watches in effect.